sensor_id;sensor_type;location;lat;lon;timestamp;pressure;altitude;pressure_sealevel;temperature;humidity
32109;BME280;18624;50.042;8.436;2023-02-14T00:00:28;102469.25;;;4.93;100.00
32109;BME280;18624;50.042;8.436;2023-02-14T00:02:54;102462.56;;;4.90;100.00
32109;BME280;18624;50.042;8.436;2023-02-14T00:05:22;102466.06;;;4.91;100.00
32109;BME280;18624;50.042;8.436;2023-02-14T00:07:48;102467.56;;;4.88;100.00
32109;BME280;18624;50.042;8.436;2023-02-14T00:10:15;102458.63;;;4.88;100.00
32109;BME280;18624;50.042;8.436;2023-02-14T00:12:42;102457.81;;;4.87;100.00
32109;BME280;18624;50.042;8.436;2023-02-14T00:15:09;102461.66;;;4.86;100.00
32109;BME280;18624;50.042;8.436;2023-02-14T00:17:51;102464.72;;;4.85;100.00
32109;BME280;18624;50.042;8.436;2023-02-14T00:20:22;102458.72;;;4.79;100.00
32109;BME280;18624;50.042;8.436;2023-02-14T00:22:49;102464.59;;;4.81;100.00
32109;BME280;18624;50.042;8.436;2023-02-14T00:25:15;102461.56;;;4.82;100.00
32109;BME280;18624;50.042;8.436;2023-02-14T00:27:42;102467.66;;;4.79;100.00
32109;BME280;18624;50.042;8.436;2023-02-14T00:30:10;102461.44;;;4.79;100.00
32109;BME280;18624;50.042;8.436;2023-02-14T00:32:38;102459.84;;;4.78;100.00
32109;BME280;18624;50.042;8.436;2023-02-14T00:35:06;102457.94;;;4.78;100.00
32109;BME280;18624;50.042;8.436;2023-02-14T00:37:33;102461.31;;;4.75;100.00
32109;BME280;18624;50.042;8.436;2023-02-14T00:40:00;102458.16;;;4.73;100.00
32109;BME280;18624;50.042;8.436;2023-02-14T00:42:26;102468.22;;;4.73;100.00
32109;BME280;18624;50.042;8.436;2023-02-14T00:44:53;102466.97;;;4.70;100.00
32109;BME280;18624;50.042;8.436;2023-02-14T00:47:19;102472.75;;;4.69;100.00
32109;BME280;18624;50.042;8.436;2023-02-14T00:49:46;102467.63;;;4.67;100.00
32109;BME280;18624;50.042;8.436;2023-02-14T00:52:12;102467.50;;;4.64;100.00
32109;BME280;18624;50.042;8.436;2023-02-14T00:54:39;102464.78;;;4.64;100.00
32109;BME280;18624;50.042;8.436;2023-02-14T00:57:05;102464.00;;;4.63;100.00
32109;BME280;18624;50.042;8.436;2023-02-14T00:59:31;102470.69;;;4.66;100.00
32109;BME280;18624;50.042;8.436;2023-02-14T01:01:58;102467.50;;;4.64;100.00
32109;BME280;18624;50.042;8.436;2023-02-14T01:04:24;102463.09;;;4.59;100.00
32109;BME280;18624;50.042;8.436;2023-02-14T01:06:51;102453.69;;;4.56;100.00
32109;BME280;18624;50.042;8.436;2023-02-14T01:09:18;102450.97;;;4.56;100.00
32109;BME280;18624;50.042;8.436;2023-02-14T01:11:44;102454.84;;;4.55;100.00
32109;BME280;18624;50.042;8.436;2023-02-14T01:14:13;102460.94;;;4.52;100.00
32109;BME280;18624;50.042;8.436;2023-02-14T01:16:41;102456.16;;;4.49;100.00
32109;BME280;18624;50.042;8.436;2023-02-14T01:19:07;102458.44;;;4.47;100.00
32109;BME280;18624;50.042;8.436;2023-02-14T01:21:34;102457.66;;;4.47;100.00
32109;BME280;18624;50.042;8.436;2023-02-14T01:24:03;102460.34;;;4.47;100.00
32109;BME280;18624;50.042;8.436;2023-02-14T01:26:30;102455.72;;;4.47;100.00
32109;BME280;18624;50.042;8.436;2023-02-14T01:28:59;102459.56;;;4.46;100.00
32109;BME280;18624;50.042;8.436;2023-02-14T01:31:30;102455.59;;;4.44;100.00
32109;BME280;18624;50.042;8.436;2023-02-14T01:33:58;102456.72;;;4.43;100.00
32109;BME280;18624;50.042;8.436;2023-02-14T01:36:45;102461.38;;;4.42;100.00
32109;BME280;18624;50.042;8.436;2023-02-14T01:39:13;102468.72;;;4.42;100.00
32109;BME280;18624;50.042;8.436;2023-02-14T01:41:42;102463.94;;;4.39;100.00
32109;BME280;18624;50.042;8.436;2023-02-14T01:46:46;102459.88;;;4.32;100.00
32109;BME280;18624;50.042;8.436;2023-02-14T01:49:34;102462.47;;;4.29;100.00
32109;BME280;18624;50.042;8.436;2023-02-14T01:52:12;102461.66;;;4.28;100.00
32109;BME280;18624;50.042;8.436;2023-02-14T01:54:45;102463.91;;;4.26;100.00
32109;BME280;18624;50.042;8.436;2023-02-14T01:57:17;102452.09;;;4.10;100.00
32109;BME280;18624;50.042;8.436;2023-02-14T01:59:50;102462.19;;;4.22;100.00
32109;BME280;18624;50.042;8.436;2023-02-14T02:02:18;102457.44;;;4.19;100.00
32109;BME280;18624;50.042;8.436;2023-02-14T02:04:51;102465.38;;;4.24;100.00
32109;BME280;18624;50.042;8.436;2023-02-14T02:07:23;102461.88;;;4.23;100.00
32109;BME280;18624;50.042;8.436;2023-02-14T02:09:54;102463.78;;;4.23;100.00
32109;BME280;18624;50.042;8.436;2023-02-14T02:12:22;102371.44;;;3.65;100.00
32109;BME280;18624;50.042;8.436;2023-02-14T02:14:52;102465.03;;;4.25;100.00
32109;BME280;18624;50.042;8.436;2023-02-14T02:34:32;102441.69;;;4.12;100.00
32109;BME280;18624;50.042;8.436;2023-02-14T02:48:47;102444.03;;;4.01;100.00
32109;BME280;18624;50.042;8.436;2023-02-14T02:51:36;102375.59;;;3.63;100.00
32109;BME280;18624;50.042;8.436;2023-02-14T02:54:49;102439.00;;;3.91;100.00
32109;BME280;18624;50.042;8.436;2023-02-14T02:57:22;102438.22;;;3.91;100.00
32109;BME280;18624;50.042;8.436;2023-02-14T02:59:52;102440.47;;;3.89;100.00
32109;BME280;18624;50.042;8.436;2023-02-14T03:02:28;102435.13;;;3.80;100.00
32109;BME280;18624;50.042;8.436;2023-02-14T03:05:01;102437.81;;;3.80;100.00
32109;BME280;18624;50.042;8.436;2023-02-14T03:07:33;102438.63;;;3.80;100.00
32109;BME280;18624;50.042;8.436;2023-02-14T03:10:11;102439.63;;;3.76;100.00
32109;BME280;18624;50.042;8.436;2023-02-14T03:13:04;102441.41;;;3.72;100.00
32109;BME280;18624;50.042;8.436;2023-02-14T03:22:07;102438.59;;;3.60;100.00
32109;BME280;18624;50.042;8.436;2023-02-14T03:27:55;102443.91;;;3.56;100.00
32109;BME280;18624;50.042;8.436;2023-02-14T03:30:03;102436.88;;;3.55;100.00
32109;BME280;18624;50.042;8.436;2023-02-14T03:32:41;102446.94;;;3.54;100.00
32109;BME280;18624;50.042;8.436;2023-02-14T03:38:13;102436.34;;;3.41;100.00
32109;BME280;18624;50.042;8.436;2023-02-14T03:40:45;102448.91;;;3.45;100.00
32109;BME280;18624;50.042;8.436;2023-02-14T03:43:30;102444.19;;;3.42;100.00
32109;BME280;18624;50.042;8.436;2023-02-14T03:46:12;102436.34;;;3.41;100.00
32109;BME280;18624;50.042;8.436;2023-02-14T03:48:43;102379.84;;;3.01;100.00
32109;BME280;18624;50.042;8.436;2023-02-14T03:51:13;102426.28;;;3.20;100.00
32109;BME280;18624;50.042;8.436;2023-02-14T03:53:47;102411.84;;;3.08;100.00
32109;BME280;18624;50.042;8.436;2023-02-14T03:56:37;102455.72;;;3.30;100.00
32109;BME280;18624;50.042;8.436;2023-02-14T03:59:13;102463.72;;;3.27;100.00
32109;BME280;18624;50.042;8.436;2023-02-14T04:01:56;102464.03;;;3.25;100.00
32109;BME280;18624;50.042;8.436;2023-02-14T04:04:30;102452.72;;;3.23;100.00
32109;BME280;18624;50.042;8.436;2023-02-14T04:06:58;102458.34;;;3.18;100.00
32109;BME280;18624;50.042;8.436;2023-02-14T04:09:24;102465.38;;;3.11;100.00
32109;BME280;18624;50.042;8.436;2023-02-14T04:11:51;102468.28;;;3.05;100.00
32109;BME280;18624;50.042;8.436;2023-02-14T04:14:17;102466.19;;;3.11;100.00
32109;BME280;18624;50.042;8.436;2023-02-14T04:16:44;102472.06;;;3.13;100.00
32109;BME280;18624;50.042;8.436;2023-02-14T04:19:28;102459.72;;;2.95;100.00
32109;BME280;18624;50.042;8.436;2023-02-14T04:21:55;102469.59;;;2.99;100.00
32109;BME280;18624;50.042;8.436;2023-02-14T04:24:21;102475.66;;;2.96;100.00
32109;BME280;18624;50.042;8.436;2023-02-14T04:26:48;102473.59;;;2.93;100.00
32109;BME280;18624;50.042;8.436;2023-02-14T04:29:42;102470.09;;;2.93;100.00
32109;BME280;18624;50.042;8.436;2023-02-14T04:32:12;102461.03;;;2.89;100.00
32109;BME280;18624;50.042;8.436;2023-02-14T04:34:39;102473.78;;;2.88;100.00
32109;BME280;18624;50.042;8.436;2023-02-14T04:37:06;102474.56;;;2.89;100.00
32109;BME280;18624;50.042;8.436;2023-02-14T04:39:33;102470.94;;;2.85;100.00
32109;BME280;18624;50.042;8.436;2023-02-14T04:42:00;102471.41;;;2.78;100.00
32109;BME280;18624;50.042;8.436;2023-02-14T04:44:26;102436.00;;;2.45;100.00
32109;BME280;18624;50.042;8.436;2023-02-14T04:46:53;102477.00;;;2.73;100.00
32109;BME280;18624;50.042;8.436;2023-02-14T04:49:20;102479.38;;;2.74;100.00
32109;BME280;18624;50.042;8.436;2023-02-14T04:51:46;102482.09;;;2.74;100.00
32109;BME280;18624;50.042;8.436;2023-02-14T04:54:13;102482.59;;;2.76;100.00
32109;BME280;18624;50.042;8.436;2023-02-14T04:56:39;102416.13;;;2.32;100.00
32109;BME280;18624;50.042;8.436;2023-02-14T04:59:07;102491.03;;;2.75;100.00
32109;BME280;18624;50.042;8.436;2023-02-14T05:01:34;102483.88;;;2.70;100.00
32109;BME280;18624;50.042;8.436;2023-02-14T05:04:01;102488.47;;;2.70;100.00
32109;BME280;18624;50.042;8.436;2023-02-14T05:06:27;102480.22;;;2.66;100.00
32109;BME280;18624;50.042;8.436;2023-02-14T05:08:54;102477.69;;;2.61;100.00
32109;BME280;18624;50.042;8.436;2023-02-14T05:11:21;102478.50;;;2.62;100.00
32109;BME280;18624;50.042;8.436;2023-02-14T05:13:48;102480.41;;;2.61;100.00
32109;BME280;18624;50.042;8.436;2023-02-14T05:16:15;102479.75;;;2.64;100.00
32109;BME280;18624;50.042;8.436;2023-02-14T05:18:41;102472.59;;;2.60;100.00
32109;BME280;18624;50.042;8.436;2023-02-14T05:21:08;102481.34;;;2.57;100.00
32109;BME280;18624;50.042;8.436;2023-02-14T05:23:34;102477.22;;;2.50;100.00
32109;BME280;18624;50.042;8.436;2023-02-14T05:26:00;102484.88;;;2.48;100.00
32109;BME280;18624;50.042;8.436;2023-02-14T05:28:27;102406.81;;;2.03;100.00
32109;BME280;18624;50.042;8.436;2023-02-14T05:30:53;102479.75;;;2.56;100.00
32109;BME280;18624;50.042;8.436;2023-02-14T05:33:24;102487.25;;;2.59;100.00
32109;BME280;18624;50.042;8.436;2023-02-14T05:35:50;102482.28;;;2.61;100.00
32109;BME280;18624;50.042;8.436;2023-02-14T05:38:17;102479.59;;;2.61;100.00
32109;BME280;18624;50.042;8.436;2023-02-14T05:40:44;102406.13;;;2.15;100.00
32109;BME280;18624;50.042;8.436;2023-02-14T05:43:10;102405.19;;;2.11;100.00
32109;BME280;18624;50.042;8.436;2023-02-14T05:45:37;102462.91;;;2.50;100.00
32109;BME280;18624;50.042;8.436;2023-02-14T05:48:04;102483.56;;;2.63;100.00
32109;BME280;18624;50.042;8.436;2023-02-14T05:50:31;102478.16;;;2.63;100.00
32109;BME280;18624;50.042;8.436;2023-02-14T05:52:57;102479.75;;;2.64;100.00
32109;BME280;18624;50.042;8.436;2023-02-14T05:55:24;102474.66;;;2.63;100.00
32109;BME280;18624;50.042;8.436;2023-02-14T05:57:51;102478.31;;;2.67;100.00
32109;BME280;18624;50.042;8.436;2023-02-14T06:00:18;102478.00;;;2.60;100.00
32109;BME280;18624;50.042;8.436;2023-02-14T06:02:44;102477.06;;;2.56;100.00
32109;BME280;18624;50.042;8.436;2023-02-14T06:05:11;102478.03;;;2.51;100.00
32109;BME280;18624;50.042;8.436;2023-02-14T06:07:37;102470.56;;;2.48;100.00
32109;BME280;18624;50.042;8.436;2023-02-14T06:10:04;102479.59;;;2.61;100.00
32109;BME280;18624;50.042;8.436;2023-02-14T06:12:31;102483.44;;;2.51;100.00
32109;BME280;18624;50.042;8.436;2023-02-14T06:14:57;102487.28;;;2.41;100.00
32109;BME280;18624;50.042;8.436;2023-02-14T06:17:23;102483.31;;;2.39;100.00
32109;BME280;18624;50.042;8.436;2023-02-14T06:19:50;102483.00;;;2.32;100.00
32109;BME280;18624;50.042;8.436;2023-02-14T06:22:16;102492.09;;;2.18;100.00
32109;BME280;18624;50.042;8.436;2023-02-14T06:24:43;102491.75;;;2.11;100.00
32109;BME280;18624;50.042;8.436;2023-02-14T06:27:09;102477.59;;;2.06;100.00
32109;BME280;18624;50.042;8.436;2023-02-14T06:29:35;102495.75;;;2.05;100.00
32109;BME280;18624;50.042;8.436;2023-02-14T06:32:02;102418.56;;;1.47;100.00
32109;BME280;18624;50.042;8.436;2023-02-14T06:34:32;102494.59;;;1.80;100.00
32109;BME280;18624;50.042;8.436;2023-02-14T06:36:59;102501.44;;;1.69;100.00
32109;BME280;18624;50.042;8.436;2023-02-14T06:39:25;102496.38;;;1.67;100.00
32109;BME280;18624;50.042;8.436;2023-02-14T06:41:52;102504.16;;;1.69;100.00
32109;BME280;18624;50.042;8.436;2023-02-14T06:44:18;102497.78;;;1.65;100.00
32109;BME280;18624;50.042;8.436;2023-02-14T06:46:45;102498.72;;;1.60;100.00
32109;BME280;18624;50.042;8.436;2023-02-14T06:49:11;102492.03;;;1.49;100.00
32109;BME280;18624;50.042;8.436;2023-02-14T06:51:38;102499.00;;;1.41;100.00
32109;BME280;18624;50.042;8.436;2023-02-14T06:54:04;102500.16;;;1.49;100.00
32109;BME280;18624;50.042;8.436;2023-02-14T06:56:31;102489.16;;;1.45;100.00
32109;BME280;18624;50.042;8.436;2023-02-14T06:58:57;102488.50;;;1.48;100.00
32109;BME280;18624;50.042;8.436;2023-02-14T07:01:24;102494.28;;;1.56;100.00
32109;BME280;18624;50.042;8.436;2023-02-14T07:03:50;102498.72;;;1.60;100.00
32109;BME280;18624;50.042;8.436;2023-02-14T07:06:16;102500.47;;;1.65;100.00
32109;BME280;18624;50.042;8.436;2023-02-14T07:08:43;102494.13;;;1.61;100.00
32109;BME280;18624;50.042;8.436;2023-02-14T07:11:09;102499.38;;;1.66;100.00
32109;BME280;18624;50.042;8.436;2023-02-14T07:13:36;102497.63;;;1.70;100.00
32109;BME280;18624;50.042;8.436;2023-02-14T07:16:02;102504.16;;;1.77;100.00
32109;BME280;18624;50.042;8.436;2023-02-14T07:18:29;102500.84;;;1.81;100.00
32109;BME280;18624;50.042;8.436;2023-02-14T07:20:55;102499.88;;;1.85;100.00
32109;BME280;18624;50.042;8.436;2023-02-14T07:23:22;102497.97;;;1.86;100.00
32109;BME280;18624;50.042;8.436;2023-02-14T07:25:48;102487.31;;;1.81;100.00
32109;BME280;18624;50.042;8.436;2023-02-14T07:28:15;102502.59;;;1.94;100.00
32109;BME280;18624;50.042;8.436;2023-02-14T07:30:41;102506.22;;;1.98;100.00
32109;BME280;18624;50.042;8.436;2023-02-14T07:33:07;102508.63;;;1.91;100.00
32109;BME280;18624;50.042;8.436;2023-02-14T07:35:34;102509.88;;;1.93;100.00
32109;BME280;18624;50.042;8.436;2023-02-14T07:38:00;102513.88;;;1.96;100.00
32109;BME280;18624;50.042;8.436;2023-02-14T07:40:27;102516.44;;;2.01;100.00
32109;BME280;18624;50.042;8.436;2023-02-14T07:42:56;102334.75;;;0.86;100.00
32109;BME280;18624;50.042;8.436;2023-02-14T07:45:23;102506.41;;;2.01;100.00
32109;BME280;18624;50.042;8.436;2023-02-14T07:47:52;102502.28;;;2.04;100.00
32109;BME280;18624;50.042;8.436;2023-02-14T07:50:20;102513.25;;;1.99;100.00
32109;BME280;18624;50.042;8.436;2023-02-14T07:52:47;102427.66;;;1.51;100.00
32109;BME280;18624;50.042;8.436;2023-02-14T07:55:13;102511.34;;;2.08;100.00
32109;BME280;18624;50.042;8.436;2023-02-14T07:57:41;102507.53;;;2.09;100.00
32109;BME280;18624;50.042;8.436;2023-02-14T08:00:08;102509.44;;;2.17;100.00
32109;BME280;18624;50.042;8.436;2023-02-14T08:02:37;102506.25;;;2.24;100.00
32109;BME280;18624;50.042;8.436;2023-02-14T08:05:04;102503.22;;;2.25;100.00
32109;BME280;18624;50.042;8.436;2023-02-14T08:07:31;102507.34;;;2.32;100.00
32109;BME280;18624;50.042;8.436;2023-02-14T08:09:57;102505.44;;;2.32;100.00
32109;BME280;18624;50.042;8.436;2023-02-14T08:12:23;102508.78;;;2.38;100.00
32109;BME280;18624;50.042;8.436;2023-02-14T08:15:08;102510.84;;;2.41;100.00
32109;BME280;18624;50.042;8.436;2023-02-14T08:17:55;102509.09;;;2.45;100.00
32109;BME280;18624;50.042;8.436;2023-02-14T08:20:22;102514.50;;;2.45;100.00
32109;BME280;18624;50.042;8.436;2023-02-14T08:22:48;102514.84;;;2.43;100.00
32109;BME280;18624;50.042;8.436;2023-02-14T08:25:15;102401.91;;;1.62;100.00
32109;BME280;18624;50.042;8.436;2023-02-14T08:27:41;102505.44;;;2.32;100.00
32109;BME280;18624;50.042;8.436;2023-02-14T08:30:08;102514.69;;;2.31;100.00
32109;BME280;18624;50.042;8.436;2023-02-14T08:32:34;102511.47;;;2.29;100.00
32109;BME280;18624;50.042;8.436;2023-02-14T08:35:01;102511.81;;;2.36;100.00
32109;BME280;18624;50.042;8.436;2023-02-14T08:37:27;102503.06;;;2.39;100.00
32109;BME280;18624;50.042;8.436;2023-02-14T08:39:54;102497.78;;;2.34;100.00
32109;BME280;18624;50.042;8.436;2023-02-14T08:42:20;102498.75;;;2.29;100.00
32109;BME280;18624;50.042;8.436;2023-02-14T08:44:47;102503.22;;;2.25;100.00
32109;BME280;18624;50.042;8.436;2023-02-14T08:47:13;102494.78;;;2.27;100.00
32109;BME280;18624;50.042;8.436;2023-02-14T08:49:40;102501.94;;;2.23;100.00
32109;BME280;18624;50.042;8.436;2023-02-14T08:52:06;102502.91;;;2.27;100.00
32109;BME280;18624;50.042;8.436;2023-02-14T08:54:33;102505.78;;;2.22;100.00
32109;BME280;18624;50.042;8.436;2023-02-14T08:56:59;102497.50;;;2.18;100.00
32109;BME280;18624;50.042;8.436;2023-02-14T08:59:26;102487.63;;;2.14;100.00
32109;BME280;18624;50.042;8.436;2023-02-14T09:01:52;102494.00;;;2.18;100.00
32109;BME280;18624;50.042;8.436;2023-02-14T09:04:19;102497.03;;;2.16;100.00
32109;BME280;18624;50.042;8.436;2023-02-14T09:06:45;102498.28;;;2.27;100.00
32109;BME280;18624;50.042;8.436;2023-02-14T09:09:12;102510.06;;;2.32;100.00
32109;BME280;18624;50.042;8.436;2023-02-14T09:11:38;102508.47;;;2.31;100.00
32109;BME280;18624;50.042;8.436;2023-02-14T09:14:04;102501.16;;;2.31;100.00
32109;BME280;18624;50.042;8.436;2023-02-14T09:16:31;102505.44;;;2.32;100.00
32109;BME280;18624;50.042;8.436;2023-02-14T09:18:57;102509.44;;;2.35;100.00
32109;BME280;18624;50.042;8.436;2023-02-14T09:21:26;102464.69;;;2.11;100.00
32109;BME280;18624;50.042;8.436;2023-02-14T09:23:53;102487.91;;;2.38;100.00
32109;BME280;18624;50.042;8.436;2023-02-14T09:26:20;102508.28;;;2.53;100.00
32109;BME280;18624;50.042;8.436;2023-02-14T09:28:46;102511.44;;;2.55;100.00
32109;BME280;18624;50.042;8.436;2023-02-14T09:31:15;102503.81;;;2.57;100.00
32109;BME280;18624;50.042;8.436;2023-02-14T09:33:43;102388.50;;;1.92;100.00
32109;BME280;18624;50.042;8.436;2023-02-14T09:36:28;102492.31;;;2.69;100.00
32109;BME280;18624;50.042;8.436;2023-02-14T09:39:13;102497.44;;;2.70;100.00
32109;BME280;18624;50.042;8.436;2023-02-14T09:44:38;102500.59;;;2.64;100.00
32109;BME280;18624;50.042;8.436;2023-02-14T09:49:50;102436.84;;;2.28;100.00
32109;BME280;18624;50.042;8.436;2023-02-14T09:52:21;102491.88;;;2.58;100.00
32109;BME280;18624;50.042;8.436;2023-02-14T09:54:54;102492.66;;;2.59;100.00
32109;BME280;18624;50.042;8.436;2023-02-14T10:00:30;102492.47;;;2.72;100.00
32109;BME280;18624;50.042;8.436;2023-02-14T10:06:02;102436.50;;;2.29;100.00
32109;BME280;18624;50.042;8.436;2023-02-14T10:08:51;102502.19;;;2.65;100.00
32109;BME280;18624;50.042;8.436;2023-02-14T10:11:22;102492.03;;;2.62;100.00
32109;BME280;18624;50.042;8.436;2023-02-14T10:14:04;102509.09;;;2.53;100.00
32109;BME280;18624;50.042;8.436;2023-02-14T10:16:58;102500.81;;;2.41;100.00
32109;BME280;18624;50.042;8.436;2023-02-14T10:19:37;102403.63;;;1.84;100.00
32109;BME280;18624;50.042;8.436;2023-02-14T10:22:17;102491.72;;;2.54;100.00
32109;BME280;18624;50.042;8.436;2023-02-14T10:24:57;102503.34;;;2.55;100.00
32109;BME280;18624;50.042;8.436;2023-02-14T10:27:38;102497.75;;;2.51;100.00
32109;BME280;18624;50.042;8.436;2023-02-14T10:30:23;102489.19;;;2.49;100.00
32109;BME280;18624;50.042;8.436;2023-02-14T10:33:09;102493.13;;;2.61;100.00
32109;BME280;18624;50.042;8.436;2023-02-14T10:35:50;102488.53;;;2.61;100.00
32109;BME280;18624;50.042;8.436;2023-02-14T10:47:00;102479.91;;;2.59;100.00
32109;BME280;18624;50.042;8.436;2023-02-14T10:49:53;102480.53;;;2.65;100.00
32109;BME280;18624;50.042;8.436;2023-02-14T10:52:26;102470.97;;;2.67;100.00
32109;BME280;18624;50.042;8.436;2023-02-14T10:54:56;102471.94;;;2.71;100.00
32109;BME280;18624;50.042;8.436;2023-02-14T10:57:29;102460.00;;;2.64;100.00
32109;BME280;18624;50.042;8.436;2023-02-14T11:00:00;102473.66;;;2.76;100.00
32109;BME280;18624;50.042;8.436;2023-02-14T11:02:36;102373.81;;;2.19;100.00
32109;BME280;18624;50.042;8.436;2023-02-14T11:05:05;102465.34;;;2.81;100.00
32109;BME280;18624;50.042;8.436;2023-02-14T11:07:33;102456.91;;;2.83;100.00
32109;BME280;18624;50.042;8.436;2023-02-14T11:10:00;102399.88;;;2.41;100.00
32109;BME280;18624;50.042;8.436;2023-02-14T11:12:32;102453.56;;;2.86;100.00
32109;BME280;18624;50.042;8.436;2023-02-14T11:15:17;102389.69;;;2.38;100.00
32109;BME280;18624;50.042;8.436;2023-02-14T11:17:45;102446.72;;;2.79;100.00
32109;BME280;18624;50.042;8.436;2023-02-14T11:22:45;102445.59;;;2.81;100.00
32109;BME280;18624;50.042;8.436;2023-02-14T11:25:25;102441.97;;;2.76;100.00
32109;BME280;18624;50.042;8.436;2023-02-14T11:28:00;102434.47;;;2.73;100.00
32109;BME280;18624;50.042;8.436;2023-02-14T11:30:33;102435.44;;;2.69;100.00
32109;BME280;18624;50.042;8.436;2023-02-14T11:33:01;102405.22;;;2.58;100.00
32109;BME280;18624;50.042;8.436;2023-02-14T11:35:31;102411.25;;;2.64;100.00
32109;BME280;18624;50.042;8.436;2023-02-14T11:40:56;102410.28;;;2.68;100.00
32109;BME280;18624;50.042;8.436;2023-02-14T11:48:55;102417.59;;;2.76;100.00
32109;BME280;18624;50.042;8.436;2023-02-14T11:51:32;102411.03;;;2.77;100.00
32109;BME280;18624;50.042;8.436;2023-02-14T11:54:00;102408.94;;;2.83;100.00
32109;BME280;18624;50.042;8.436;2023-02-14T11:57:06;102408.00;;;2.79;100.00
32109;BME280;18624;50.042;8.436;2023-02-14T11:59:37;102403.84;;;2.82;100.00
32109;BME280;18624;50.042;8.436;2023-02-14T12:05:03;102404.16;;;2.89;100.00
32109;BME280;18624;50.042;8.436;2023-02-14T12:07:32;102401.75;;;2.87;100.00
32109;BME280;18624;50.042;8.436;2023-02-14T12:12:53;102391.25;;;2.86;100.00
32109;BME280;18624;50.042;8.436;2023-02-14T12:15:25;102391.59;;;2.84;100.00
32109;BME280;18624;50.042;8.436;2023-02-14T12:18:02;102388.06;;;2.84;100.00
32109;BME280;18624;50.042;8.436;2023-02-14T12:20:41;102383.13;;;2.86;100.00
32109;BME280;18624;50.042;8.436;2023-02-14T12:23:15;102381.06;;;2.83;100.00
32109;BME280;18624;50.042;8.436;2023-02-14T12:25:49;102368.19;;;2.79;100.00
32109;BME280;18624;50.042;8.436;2023-02-14T12:28:21;102369.78;;;2.81;100.00
32109;BME280;18624;50.042;8.436;2023-02-14T12:30:51;102374.41;;;2.80;100.00
32109;BME280;18624;50.042;8.436;2023-02-14T12:33:19;102381.06;;;2.83;100.00
32109;BME280;18624;50.042;8.436;2023-02-14T12:36:03;102365.59;;;2.83;100.00
32109;BME280;18624;50.042;8.436;2023-02-14T12:38:44;102367.31;;;2.88;100.00
32109;BME280;18624;50.042;8.436;2023-02-14T12:41:28;102362.41;;;2.90;100.00
32109;BME280;18624;50.042;8.436;2023-02-14T12:57:48;102348.84;;;3.11;100.00
32109;BME280;18624;50.042;8.436;2023-02-14T13:11:37;102314.31;;;3.08;100.00
32109;BME280;18624;50.042;8.436;2023-02-14T13:19:46;102325.41;;;3.15;100.00
32109;BME280;18624;50.042;8.436;2023-02-14T13:22:19;102311.19;;;3.18;100.00
32109;BME280;18624;50.042;8.436;2023-02-14T13:24:50;102293.78;;;3.07;100.00
32109;BME280;18624;50.042;8.436;2023-02-14T13:27:22;102293.78;;;3.07;100.00
32109;BME280;18624;50.042;8.436;2023-02-14T13:29:59;102308.50;;;3.18;100.00
32109;BME280;18624;50.042;8.436;2023-02-14T13:32:36;102295.88;;;3.22;100.00
32109;BME280;18624;50.042;8.436;2023-02-14T13:35:05;102293.81;;;3.19;100.00
32109;BME280;18624;50.042;8.436;2023-02-14T13:37:34;102297.00;;;3.21;100.00
32109;BME280;18624;50.042;8.436;2023-02-14T13:40:07;102310.06;;;3.19;100.00
32109;BME280;18624;50.042;8.436;2023-02-14T13:48:12;102291.16;;;3.31;100.00
32109;BME280;18624;50.042;8.436;2023-02-14T13:50:49;102287.31;;;3.32;100.00
32109;BME280;18624;50.042;8.436;2023-02-14T13:53:45;102286.88;;;3.30;100.00
32109;BME280;18624;50.042;8.436;2023-02-14T13:58:46;102205.44;;;2.72;100.00
32109;BME280;18624;50.042;8.436;2023-02-14T14:15:09;102276.50;;;3.32;100.00
32109;BME280;18624;50.042;8.436;2023-02-14T14:20:43;102273.97;;;3.27;100.00
32109;BME280;18624;50.042;8.436;2023-02-14T14:23:27;102273.19;;;3.26;100.00
32109;BME280;18624;50.042;8.436;2023-02-14T14:25:54;102275.69;;;3.32;100.00
32109;BME280;18624;50.042;8.436;2023-02-14T14:28:24;102273.47;;;3.34;100.00
32109;BME280;18624;50.042;8.436;2023-02-14T14:30:51;102279.00;;;3.37;100.00
32109;BME280;18624;50.042;8.436;2023-02-14T14:33:31;102266.34;;;3.41;100.00
32109;BME280;18624;50.042;8.436;2023-02-14T14:36:04;102265.34;;;3.46;100.00
32109;BME280;18624;50.042;8.436;2023-02-14T14:38:34;102250.56;;;3.43;100.00
32109;BME280;18624;50.042;8.436;2023-02-14T14:41:10;102262.56;;;3.54;100.00
32109;BME280;18624;50.042;8.436;2023-02-14T14:43:38;102253.50;;;3.50;100.00
32109;BME280;18624;50.042;8.436;2023-02-14T14:46:11;102260.53;;;3.51;100.00
32109;BME280;18624;50.042;8.436;2023-02-14T14:48:46;102248.31;;;3.45;100.00
32109;BME280;18624;50.042;8.436;2023-02-14T14:54:03;102241.56;;;3.51;100.00
32109;BME280;18624;50.042;8.436;2023-02-14T14:56:31;102250.81;;;3.50;100.00
32109;BME280;18624;50.042;8.436;2023-02-14T14:59:27;102232.06;;;3.58;100.00
32109;BME280;18624;50.042;8.436;2023-02-14T15:01:53;102221.22;;;3.58;100.00
32109;BME280;18624;50.042;8.436;2023-02-14T15:04:34;102155.16;;;3.17;100.00
32109;BME280;18624;50.042;8.436;2023-02-14T15:07:36;102221.81;;;3.63;100.00
32109;BME280;18624;50.042;8.436;2023-02-14T15:10:20;102217.03;;;3.60;100.00
32109;BME280;18624;50.042;8.436;2023-02-14T15:12:46;102218.53;;;3.58;100.00
32109;BME280;18624;50.042;8.436;2023-02-14T15:15:31;102220.09;;;3.59;100.00
32109;BME280;18624;50.042;8.436;2023-02-14T15:17:57;102213.09;;;3.58;100.00
32109;BME280;18624;50.042;8.436;2023-02-14T15:20:24;102202.78;;;3.51;100.00
32109;BME280;18624;50.042;8.436;2023-02-14T15:22:51;102215.94;;;3.61;100.00
32109;BME280;18624;50.042;8.436;2023-02-14T15:25:25;102224.63;;;3.67;100.00
32109;BME280;18624;50.042;8.436;2023-02-14T15:27:52;102175.97;;;3.37;100.00